createdAt,value
2022-08-10T00:01:54.325Z,21.83
2022-08-10T00:04:24.710Z,21.81
2022-08-10T00:06:54.927Z,21.79
2022-08-10T00:09:24.786Z,21.78
2022-08-10T00:11:53.467Z,21.76
2022-08-10T00:14:22.463Z,21.74
2022-08-10T00:16:51.105Z,21.71
2022-08-10T00:19:19.838Z,21.69
2022-08-10T00:21:48.830Z,21.66
2022-08-10T00:24:17.518Z,21.64
2022-08-10T00:28:01.318Z,21.60
2022-08-10T00:29:35.186Z,21.57
2022-08-10T00:32:04.248Z,21.53
2022-08-10T00:34:33.445Z,21.49
2022-08-10T00:37:02.882Z,21.45
2022-08-10T00:39:35.931Z,21.42
2022-08-10T00:42:08.336Z,21.38
2022-08-10T00:44:43.128Z,21.34
2022-08-10T00:47:36.154Z,21.30
2022-08-10T00:50:03.784Z,21.26
2022-08-10T00:52:33.822Z,21.22
2022-08-10T00:55:04.496Z,21.15
2022-08-10T00:57:34.577Z,21.10
2022-08-10T01:00:05.810Z,21.06
2022-08-10T01:02:34.934Z,21.03
2022-08-10T01:05:08.104Z,20.99
2022-08-10T01:08:18.871Z,20.96
2022-08-10T01:12:37.441Z,20.93
2022-08-10T01:14:17.271Z,20.90
2022-08-10T01:17:00.051Z,20.89
2022-08-10T01:19:34.203Z,20.89
2022-08-10T01:22:29.720Z,20.88
2022-08-10T01:25:31.379Z,20.88
2022-08-10T01:28:18.810Z,20.88
2022-08-10T01:30:53.923Z,20.88
2022-08-10T01:34:02.411Z,20.88
2022-08-10T01:36:41.656Z,20.89
2022-08-10T01:39:16.429Z,20.89
2022-08-10T01:41:49.214Z,20.89
2022-08-10T01:44:24.416Z,20.89
2022-08-10T01:47:22.038Z,20.88
2022-08-10T01:49:58.033Z,20.87
2022-08-10T01:52:29.673Z,20.85
2022-08-10T01:54:59.138Z,20.83
2022-08-10T01:57:30.829Z,20.81
2022-08-10T02:00:03.497Z,20.79
2022-08-10T02:02:37.886Z,20.78
2022-08-10T02:05:09.149Z,20.77
2022-08-10T02:07:39.435Z,20.76
2022-08-10T02:10:12.109Z,20.74
2022-08-10T02:12:43.647Z,20.72
2022-08-10T02:15:19.841Z,20.70
2022-08-10T02:18:02.014Z,20.68
2022-08-10T02:20:49.989Z,20.67
2022-08-10T02:23:23.157Z,20.66
2022-08-10T02:25:55.196Z,20.65
2022-08-10T02:28:30.494Z,20.63
2022-08-10T02:31:06.406Z,20.62
2022-08-10T02:33:38.597Z,20.62
2022-08-10T02:36:30.077Z,20.62
2022-08-10T02:39:02.144Z,20.59
2022-08-10T02:45:02.551Z,20.57
2022-08-10T02:45:24.120Z,20.52
2022-08-10T02:47:54.308Z,20.47
2022-08-10T02:50:29.557Z,20.42
2022-08-10T02:53:54.872Z,20.37
2022-08-10T02:56:12.656Z,20.34
2022-08-10T02:58:45.433Z,20.29
2022-08-10T03:01:21.537Z,20.26
2022-08-10T03:04:05.586Z,20.24
2022-08-10T03:06:40.150Z,20.24
2022-08-10T03:09:11.672Z,20.24
2022-08-10T03:12:37.478Z,20.24
2022-08-10T03:14:34.957Z,20.21
2022-08-10T03:17:05.211Z,20.21
2022-08-10T03:20:33.705Z,20.22
2022-08-10T03:22:25.272Z,20.22
2022-08-10T03:24:55.560Z,20.21
2022-08-10T03:27:24.700Z,20.21
2022-08-10T03:30:29.938Z,20.23
2022-08-10T03:32:45.687Z,20.27
2022-08-10T03:35:15.638Z,20.30
2022-08-10T03:37:44.435Z,20.34
2022-08-10T03:40:13.633Z,20.38
2022-08-10T03:42:44.628Z,20.43
2022-08-10T03:45:14.037Z,20.47
2022-08-10T03:47:43.586Z,20.52
2022-08-10T03:50:28.904Z,20.58
2022-08-10T03:53:03.500Z,20.61
2022-08-10T03:56:29.197Z,20.62
2022-08-10T03:58:21.872Z,20.63
2022-08-10T04:00:52.050Z,20.65
2022-08-10T04:03:21.174Z,20.67
2022-08-10T04:05:49.889Z,20.70
2022-08-10T04:08:18.577Z,20.73
2022-08-10T04:10:47.134Z,20.79
2022-08-10T04:13:15.820Z,20.84
2022-08-10T04:15:44.714Z,20.90
2022-08-10T04:18:13.400Z,20.94
2022-08-10T04:20:50.503Z,21.00
2022-08-10T04:23:29.446Z,21.05
2022-08-10T04:25:58.612Z,21.10
2022-08-10T04:28:27.898Z,21.17
2022-08-10T04:30:59.186Z,21.22
2022-08-10T04:33:32.379Z,21.29
2022-08-10T04:36:04.010Z,21.41
2022-08-10T04:38:34.247Z,21.50
2022-08-10T04:41:03.430Z,21.57
2022-08-10T04:43:32.528Z,21.63
2022-08-10T04:46:01.423Z,21.73
2022-08-10T04:48:40.159Z,21.85
2022-08-10T04:51:18.978Z,21.98
2022-08-10T04:54:04.080Z,22.09
2022-08-10T04:56:37.648Z,22.25
2022-08-10T04:59:07.443Z,22.33
2022-08-10T05:02:12.283Z,22.42
2022-08-10T05:04:36.884Z,22.52
2022-08-10T05:07:18.138Z,22.56
2022-08-10T05:10:04.818Z,22.59
2022-08-10T05:12:38.000Z,22.63
2022-08-10T05:15:19.448Z,22.73
2022-08-10T05:18:08.531Z,22.81
2022-08-10T05:20:37.151Z,22.80
2022-08-10T05:23:05.894Z,22.76
2022-08-10T05:25:38.045Z,22.71
2022-08-10T05:28:07.374Z,22.65
2022-08-10T05:30:36.003Z,22.63
2022-08-10T05:33:08.530Z,22.73
2022-08-10T05:35:57.782Z,22.96
2022-08-10T05:38:29.762Z,23.17
2022-08-10T05:40:59.940Z,23.42
2022-08-10T05:43:28.617Z,23.54
2022-08-10T05:46:18.185Z,23.58
2022-08-10T05:48:58.895Z,23.70
2022-08-10T05:51:30.641Z,24.02
2022-08-10T05:54:06.137Z,24.19
2022-08-10T05:56:54.798Z,24.22
2022-08-10T06:00:11.247Z,24.26
2022-08-10T06:02:33.004Z,24.50
2022-08-10T06:05:07.145Z,24.68
2022-08-10T06:07:39.912Z,24.93
2022-08-10T06:10:13.219Z,25.11
2022-08-10T06:12:54.192Z,25.38
2022-08-10T06:15:50.216Z,25.64
2022-08-10T06:18:15.714Z,25.85
2022-08-10T06:20:45.596Z,25.98
2022-08-10T06:23:14.896Z,26.12
2022-08-10T06:26:10.629Z,26.28
2022-08-10T06:28:38.160Z,26.43
2022-08-10T06:31:08.767Z,26.54
2022-08-10T06:33:39.862Z,26.68
2022-08-10T06:36:09.300Z,26.80
2022-08-10T06:38:40.037Z,26.91
2022-08-10T06:41:19.977Z,27.00
2022-08-10T06:44:00.081Z,27.21
2022-08-10T06:46:31.040Z,27.41
2022-08-10T06:49:03.535Z,27.49
2022-08-10T06:51:37.188Z,27.59
2022-08-10T06:54:14.812Z,27.56
2022-08-10T06:57:01.784Z,27.28
2022-08-10T06:59:49.017Z,26.99
2022-08-10T07:02:26.110Z,26.88
2022-08-10T07:05:07.096Z,26.72
2022-08-10T07:07:39.429Z,26.72
2022-08-10T07:10:10.662Z,26.63
2022-08-10T07:12:40.106Z,26.55
2022-08-10T07:15:12.810Z,26.46
2022-08-10T07:17:42.682Z,26.38
2022-08-10T07:20:18.129Z,26.35
2022-08-10T07:23:56.202Z,26.27
2022-08-10T07:25:43.691Z,26.18
2022-08-10T07:28:15.540Z,26.06
2022-08-10T07:30:46.156Z,25.95
2022-08-10T07:33:18.736Z,25.89
2022-08-10T07:35:49.562Z,26.00
2022-08-10T07:38:23.098Z,26.44
2022-08-10T07:40:53.766Z,26.87
2022-08-10T07:43:25.504Z,26.83
2022-08-10T07:45:56.876Z,26.75
2022-08-10T07:48:33.087Z,26.83
2022-08-10T07:51:03.324Z,26.99
2022-08-10T07:53:35.678Z,27.21
2022-08-10T07:56:16.822Z,27.65
2022-08-10T07:59:32.240Z,28.08
2022-08-10T08:02:03.558Z,28.28
2022-08-10T08:04:33.464Z,28.62
2022-08-10T08:07:04.762Z,28.80
2022-08-10T08:09:36.514Z,28.96
2022-08-10T08:12:07.091Z,29.26
2022-08-10T08:14:37.846Z,29.42
2022-08-10T08:17:09.484Z,29.51
2022-08-10T08:19:46.213Z,29.61
2022-08-10T08:24:06.196Z,29.78
2022-08-10T08:25:18.209Z,29.97
2022-08-10T08:27:52.994Z,30.23
2022-08-10T08:30:27.768Z,30.47
2022-08-10T08:32:58.644Z,30.74
2022-08-10T08:35:27.697Z,30.89
2022-08-10T08:38:33.611Z,30.89
2022-08-10T08:40:58.862Z,31.00
2022-08-10T08:43:42.707Z,31.06
2022-08-10T08:46:59.651Z,31.10
2022-08-10T08:50:05.004Z,31.19
2022-08-10T08:52:53.758Z,31.24
2022-08-10T08:56:03.452Z,31.34
2022-08-10T08:58:37.001Z,31.41
2022-08-10T09:01:38.299Z,31.45
2022-08-10T09:04:57.813Z,31.44
2022-08-10T09:08:01.461Z,31.47
2022-08-10T09:10:37.695Z,31.60
2022-08-10T09:13:43.747Z,31.76
2022-08-10T09:16:43.669Z,31.90
2022-08-10T09:19:41.781Z,32.14
2022-08-10T09:22:40.946Z,32.43
2022-08-10T09:25:46.296Z,32.58
2022-08-10T09:28:26.646Z,32.61
2022-08-10T09:31:22.480Z,32.81
2022-08-10T09:36:22.103Z,33.00
2022-08-10T09:37:20.410Z,33.08
2022-08-10T09:40:48.467Z,33.10
2022-08-10T09:43:21.944Z,32.73
2022-08-10T09:46:14.912Z,32.27
2022-08-10T09:49:03.818Z,32.35
2022-08-10T09:52:13.523Z,32.63
2022-08-10T09:54:53.902Z,32.84
2022-08-10T09:57:55.018Z,32.73
2022-08-10T10:00:31.197Z,32.45
2022-08-10T10:03:15.491Z,32.13
2022-08-10T10:05:58.887Z,31.97
2022-08-10T10:08:30.844Z,31.88
2022-08-10T10:11:18.034Z,32.16
2022-08-10T10:14:08.171Z,32.60
2022-08-10T10:17:04.391Z,33.01
2022-08-10T10:19:49.973Z,33.28
2022-08-10T10:22:43.135Z,33.40
2022-08-10T10:25:23.701Z,33.56
2022-08-10T10:28:10.105Z,33.68
2022-08-10T10:31:02.609Z,33.79
2022-08-10T10:33:46.391Z,33.97
2022-08-10T10:36:22.977Z,34.09
2022-08-10T10:38:54.926Z,34.22
2022-08-10T10:42:03.372Z,34.22
2022-08-10T10:44:33.774Z,34.28
2022-08-10T10:47:05.638Z,34.33
2022-08-10T10:49:56.070Z,34.39
2022-08-10T10:52:42.745Z,34.51
2022-08-10T10:55:29.352Z,34.72
2022-08-10T10:58:10.838Z,34.83
2022-08-10T11:01:17.154Z,34.92
2022-08-10T11:04:02.488Z,35.06
2022-08-10T11:06:51.382Z,35.03
2022-08-10T11:10:08.663Z,34.96
2022-08-10T11:14:23.187Z,34.86
2022-08-10T11:16:04.727Z,34.97
2022-08-10T11:18:45.460Z,35.08
2022-08-10T11:21:22.891Z,35.08
2022-08-10T11:24:46.817Z,35.01
2022-08-10T11:27:39.728Z,35.04
2022-08-10T11:30:19.448Z,34.86
2022-08-10T11:33:03.835Z,34.88
2022-08-10T11:35:41.939Z,35.01
2022-08-10T11:38:32.111Z,35.28
2022-08-10T11:42:09.927Z,35.62
2022-08-10T11:44:32.892Z,35.64
2022-08-10T11:47:20.290Z,35.64
2022-08-10T11:50:04.063Z,35.65
2022-08-10T11:52:39.917Z,35.34
2022-08-10T11:55:19.165Z,35.01
2022-08-10T11:57:53.123Z,34.89
2022-08-10T12:00:29.605Z,34.80
2022-08-10T12:03:07.757Z,34.93
2022-08-10T12:05:52.133Z,35.06
2022-08-10T12:10:04.797Z,35.11
2022-08-10T12:11:24.160Z,35.27
2022-08-10T12:14:19.826Z,35.48
2022-08-10T12:16:52.926Z,35.73
2022-08-10T12:20:01.123Z,36.10
2022-08-10T12:22:34.429Z,36.39
2022-08-10T12:25:11.758Z,36.59
2022-08-10T12:28:18.067Z,36.68
2022-08-10T12:31:09.853Z,36.63
2022-08-10T12:34:02.549Z,36.35
2022-08-10T12:36:41.883Z,36.02
2022-08-10T12:39:27.442Z,35.72
2022-08-10T12:42:39.368Z,35.64
2022-08-10T12:45:21.220Z,35.61
2022-08-10T12:48:15.248Z,35.52
2022-08-10T12:50:50.590Z,35.28
2022-08-10T12:53:40.885Z,35.14
2022-08-10T12:56:10.188Z,35.29
2022-08-10T12:59:00.397Z,35.40
2022-08-10T13:02:07.638Z,35.48
2022-08-10T13:04:30.223Z,35.29
2022-08-10T13:07:01.992Z,35.03
2022-08-10T13:09:31.891Z,34.72
2022-08-10T13:12:44.563Z,34.44
2022-08-10T13:15:43.168Z,34.25
2022-08-10T13:17:58.549Z,34.27
2022-08-10T13:20:31.362Z,34.47
2022-08-10T13:23:03.128Z,34.84
2022-08-10T13:25:40.899Z,34.85
2022-08-10T13:28:35.605Z,34.62
2022-08-10T13:31:07.661Z,34.37
2022-08-10T13:34:39.915Z,34.07
2022-08-10T13:36:39.267Z,33.72
2022-08-10T13:39:10.007Z,33.43
2022-08-10T13:41:40.291Z,33.19
2022-08-10T13:44:11.992Z,32.85
2022-08-10T13:46:48.143Z,32.52
2022-08-10T13:49:19.363Z,32.20
2022-08-10T13:51:57.607Z,31.99
2022-08-10T13:54:37.100Z,31.80
2022-08-10T13:57:07.187Z,31.62
2022-08-10T14:00:34.568Z,31.46
2022-08-10T14:02:35.292Z,31.17
2022-08-10T14:05:06.748Z,31.01
2022-08-10T14:07:53.539Z,30.80
2022-08-10T14:11:05.385Z,30.57
2022-08-10T14:13:28.070Z,30.30
2022-08-10T14:15:58.291Z,30.08
2022-08-10T14:18:28.003Z,29.85
2022-08-10T14:20:59.973Z,29.64
2022-08-10T14:23:28.759Z,29.48
2022-08-10T14:26:06.590Z,29.32
2022-08-10T14:28:42.518Z,29.20
2022-08-10T14:31:15.865Z,29.08
2022-08-10T14:33:58.677Z,28.92
2022-08-10T14:36:37.415Z,28.75
2022-08-10T14:39:08.587Z,28.63
2022-08-10T14:42:02.843Z,28.56
2022-08-10T14:44:31.329Z,28.48
2022-08-10T14:48:03.296Z,28.38
2022-08-10T14:49:57.649Z,28.20
2022-08-10T14:52:28.770Z,28.04
2022-08-10T14:55:04.946Z,27.90
2022-08-10T14:58:19.794Z,27.73
2022-08-10T15:00:43.092Z,27.59
2022-08-10T15:04:01.028Z,27.52
2022-08-10T15:06:17.308Z,27.54
2022-08-10T15:08:48.554Z,27.88
2022-08-10T15:12:15.159Z,28.27
2022-08-10T15:14:41.815Z,28.37
2022-08-10T15:16:59.662Z,28.29
2022-08-10T15:20:28.676Z,28.20
2022-08-10T15:24:05.647Z,28.07
2022-08-10T15:26:51.418Z,28.18
2022-08-10T15:29:27.773Z,28.24
2022-08-10T15:32:15.161Z,28.16
2022-08-10T15:35:04.922Z,27.95
2022-08-10T15:37:47.232Z,27.72
2022-08-10T15:40:25.051Z,27.56
2022-08-10T15:43:20.214Z,27.45
2022-08-10T15:46:16.079Z,27.29
2022-08-10T15:48:50.485Z,27.18
2022-08-10T15:51:28.468Z,26.98
2022-08-10T15:54:07.518Z,26.79
2022-08-10T15:56:49.826Z,26.75
2022-08-10T15:59:41.862Z,26.77
2022-08-10T16:03:13.342Z,26.56
2022-08-10T16:06:47.871Z,26.28
2022-08-10T16:14:16.092Z,26.05
2022-08-10T16:17:55.333Z,25.78
2022-08-10T16:21:31.374Z,25.41
2022-08-10T16:24:15.547Z,25.09
2022-08-10T16:26:50.766Z,24.92
2022-08-10T16:29:24.860Z,24.73
2022-08-10T16:31:57.033Z,24.50
2022-08-10T16:34:28.561Z,24.26
2022-08-10T16:37:03.537Z,24.11
2022-08-10T16:39:58.105Z,23.95
2022-08-10T16:42:29.604Z,23.78
2022-08-10T16:45:06.361Z,23.65
2022-08-10T16:47:46.685Z,23.50
2022-08-10T16:50:22.001Z,23.33
2022-08-10T16:52:53.419Z,23.14
2022-08-10T16:55:49.845Z,22.94
2022-08-10T16:58:16.187Z,22.72
2022-08-10T17:00:47.357Z,22.56
2022-08-10T17:04:04.518Z,22.43
2022-08-10T17:06:13.889Z,22.28
2022-08-10T17:08:48.719Z,22.14
2022-08-10T17:11:21.198Z,22.02
2022-08-10T17:13:50.701Z,21.91
2022-08-10T17:16:22.052Z,21.80
2022-08-10T17:18:51.416Z,21.71
2022-08-10T17:21:30.425Z,21.61
2022-08-10T17:24:03.288Z,21.52
2022-08-10T17:26:38.265Z,21.44
2022-08-10T17:29:53.117Z,21.36
2022-08-10T17:32:19.511Z,21.25
2022-08-10T17:34:53.530Z,21.18
2022-08-10T17:37:24.720Z,21.11
2022-08-10T17:40:01.419Z,21.03
2022-08-10T17:42:32.024Z,20.97
2022-08-10T17:45:01.949Z,20.93
2022-08-10T17:47:32.892Z,20.88
2022-08-10T17:50:02.950Z,20.82
2022-08-10T17:52:33.684Z,20.76
2022-08-10T17:55:06.352Z,20.71
2022-08-10T17:57:38.329Z,20.68
2022-08-10T18:00:15.022Z,20.65
2022-08-10T18:02:46.738Z,20.62
2022-08-10T18:05:15.864Z,20.58
2022-08-10T18:07:50.912Z,20.53
2022-08-10T18:10:22.450Z,20.49
2022-08-10T18:12:53.696Z,20.45
2022-08-10T18:15:27.915Z,20.40
2022-08-10T18:18:03.300Z,20.39
2022-08-10T18:20:37.750Z,20.37
2022-08-10T18:23:09.487Z,20.37
2022-08-10T18:25:41.904Z,20.36
2022-08-10T18:28:20.260Z,20.35
2022-08-10T18:30:54.238Z,20.34
2022-08-10T18:33:29.787Z,20.33
2022-08-10T18:36:07.751Z,20.32
2022-08-10T18:38:38.798Z,20.31
2022-08-10T18:41:16.230Z,20.31
2022-08-10T18:44:07.409Z,20.30
2022-08-10T18:46:47.805Z,20.29
2022-08-10T18:49:26.834Z,20.28
2022-08-10T18:51:58.047Z,20.27
2022-08-10T18:54:44.455Z,20.25
2022-08-10T18:57:41.228Z,20.24
2022-08-10T19:00:55.848Z,20.23
2022-08-10T19:04:42.800Z,20.21
2022-08-10T19:07:50.010Z,20.20
2022-08-10T19:10:40.257Z,20.19
2022-08-10T19:13:33.318Z,20.18
2022-08-10T19:16:12.494Z,20.17
2022-08-10T19:19:22.548Z,20.17
2022-08-10T19:22:03.728Z,20.17
2022-08-10T19:24:41.736Z,20.16
2022-08-10T19:27:32.139Z,20.16
2022-08-10T19:30:12.990Z,20.16
2022-08-10T19:33:03.718Z,20.15
2022-08-10T19:36:09.981Z,20.15
2022-08-10T19:38:50.820Z,20.14
2022-08-10T19:41:54.449Z,20.14
2022-08-10T19:44:53.045Z,20.13
2022-08-10T19:47:45.335Z,20.12
2022-08-10T19:50:21.959Z,20.11
2022-08-10T19:52:50.610Z,20.10
2022-08-10T19:55:35.204Z,20.10
2022-08-10T19:58:30.019Z,20.09
2022-08-10T20:01:08.885Z,20.08
2022-08-10T20:03:47.308Z,20.09
2022-08-10T20:06:31.089Z,20.08
2022-08-10T20:09:18.925Z,20.08
2022-08-10T20:12:04.837Z,20.07
2022-08-10T20:14:36.821Z,20.07
2022-08-10T20:17:13.618Z,20.07
2022-08-10T20:20:14.051Z,20.06
2022-08-10T20:23:13.396Z,20.07
2022-08-10T20:25:49.559Z,20.06
2022-08-10T20:28:42.311Z,20.05
2022-08-10T20:31:20.483Z,20.05
2022-08-10T20:34:01.589Z,20.05
2022-08-10T20:36:39.913Z,20.05
2022-08-10T20:39:33.780Z,20.04
2022-08-10T20:42:32.909Z,20.04
2022-08-10T20:45:12.024Z,20.03
2022-08-10T20:47:56.991Z,20.03
2022-08-10T20:50:43.188Z,20.02
2022-08-10T20:53:17.519Z,20.01
2022-08-10T20:55:53.833Z,20.00
2022-08-10T20:59:08.877Z,19.99
2022-08-10T21:02:19.828Z,19.99
2022-08-10T21:04:58.894Z,19.98
2022-08-10T21:08:04.752Z,19.99
2022-08-10T21:11:07.813Z,19.98
2022-08-10T21:14:02.167Z,19.98
2022-08-10T21:16:52.496Z,19.98
2022-08-10T21:19:39.600Z,19.97
2022-08-10T21:22:33.390Z,19.96
2022-08-10T21:25:15.717Z,19.96
2022-08-10T21:28:16.949Z,19.95
2022-08-10T21:31:22.098Z,19.95
2022-08-10T21:34:09.314Z,19.95
2022-08-10T21:36:48.001Z,19.95
2022-08-10T21:39:41.898Z,19.95
2022-08-10T21:43:05.589Z,19.94
2022-08-10T21:46:06.328Z,19.92
2022-08-10T21:49:22.893Z,19.92
2022-08-10T21:55:57.011Z,19.91
2022-08-10T21:58:52.706Z,19.90
2022-08-10T22:01:56.002Z,19.90
2022-08-10T22:04:45.561Z,19.89
2022-08-10T22:07:38.945Z,19.89
2022-08-10T22:10:29.034Z,19.89
2022-08-10T22:13:21.889Z,19.88
2022-08-10T22:16:14.434Z,19.88
2022-08-10T22:19:14.570Z,19.86
2022-08-10T22:22:02.912Z,19.86
2022-08-10T22:25:17.984Z,19.86
2022-08-10T22:28:17.785Z,19.85
2022-08-10T22:31:25.492Z,19.91
2022-08-10T22:31:32.065Z,19.85
2022-08-10T22:34:38.937Z,19.85
2022-08-10T22:37:41.097Z,19.85
2022-08-10T22:40:34.947Z,19.86
2022-08-10T22:43:35.759Z,19.85
2022-08-10T22:46:31.654Z,19.86
2022-08-10T22:49:00.888Z,19.86
2022-08-10T22:51:51.353Z,19.87
2022-08-10T22:54:55.673Z,19.87
2022-08-10T22:57:43.614Z,19.88
2022-08-10T23:00:18.765Z,19.88
2022-08-10T23:03:03.226Z,19.88
2022-08-10T23:05:36.107Z,19.88
2022-08-10T23:08:30.990Z,19.89
2022-08-10T23:11:06.852Z,19.90
2022-08-10T23:13:41.479Z,19.90
2022-08-10T23:16:42.981Z,19.91
2022-08-10T23:19:22.916Z,19.90
2022-08-10T23:22:05.312Z,19.91
2022-08-10T23:24:36.858Z,19.91
2022-08-10T23:27:13.152Z,19.92
2022-08-10T23:30:10.182Z,19.93
2022-08-10T23:32:45.920Z,19.94
2022-08-10T23:36:31.244Z,19.95
2022-08-10T23:38:07.359Z,19.97
2022-08-10T23:40:37.289Z,19.97
2022-08-10T23:43:07.403Z,19.98
2022-08-10T23:45:53.676Z,19.98
2022-08-10T23:48:29.981Z,19.99
2022-08-10T23:51:01.821Z,19.98
2022-08-10T23:53:35.353Z,19.99
2022-08-10T23:56:10.820Z,19.99
2022-08-10T23:58:46.726Z,19.98
